createdAt,value
2022-10-09T00:01:24.021Z,4.53
2022-10-09T00:03:52.724Z,4.50
2022-10-09T00:06:23.001Z,4.25
2022-10-09T00:08:50.431Z,4.05
2022-10-09T00:11:26.197Z,4.65
2022-10-09T00:13:54.713Z,3.60
2022-10-09T00:16:22.938Z,4.63
2022-10-09T00:18:51.057Z,5.30
2022-10-09T00:21:21.345Z,4.28
2022-10-09T00:23:49.240Z,3.70
2022-10-09T00:26:16.795Z,4.35
2022-10-09T00:28:43.881Z,4.30
2022-10-09T00:31:11.928Z,3.63
2022-10-09T00:33:39.703Z,4.10
2022-10-09T00:36:09.370Z,3.75
2022-10-09T00:38:36.632Z,3.53
2022-10-09T00:41:03.705Z,4.40
2022-10-09T00:43:43.492Z,4.60
2022-10-09T00:46:27.602Z,4.35
2022-10-09T00:49:12.715Z,4.47
2022-10-09T00:51:41.323Z,3.80
2022-10-09T00:54:11.791Z,4.30
2022-10-09T00:56:39.074Z,5.07
2022-10-09T00:59:07.027Z,4.60
2022-10-09T01:01:34.219Z,4.80
2022-10-09T01:04:01.177Z,4.22
2022-10-09T01:07:22.068Z,4.32
2022-10-09T01:10:05.885Z,6.43
2022-10-09T01:13:28.607Z,5.38
2022-10-09T01:16:10.103Z,4.93
2022-10-09T01:19:01.333Z,4.57
2022-10-09T01:21:52.505Z,4.78
2022-10-09T01:24:33.640Z,5.15
2022-10-09T01:27:28.357Z,4.70
2022-10-09T01:30:04.062Z,4.30
2022-10-09T01:32:38.829Z,3.50
2022-10-09T01:35:08.116Z,4.15
2022-10-09T01:37:37.115Z,4.20
2022-10-09T01:40:07.685Z,5.65
2022-10-09T01:42:34.790Z,4.30
2022-10-09T01:45:01.985Z,5.35
2022-10-09T01:47:29.011Z,4.50
2022-10-09T01:50:09.451Z,4.00
2022-10-09T01:52:52.055Z,4.25
2022-10-09T01:55:39.239Z,4.38
2022-10-09T01:58:22.662Z,4.22
2022-10-09T02:01:17.639Z,4.82
2022-10-09T02:03:49.049Z,4.95
2022-10-09T02:08:47.134Z,5.15
2022-10-09T02:11:17.538Z,5.70
2022-10-09T02:13:47.843Z,4.88
2022-10-09T02:16:43.658Z,6.18
2022-10-09T02:19:39.891Z,4.85
2022-10-09T02:22:19.250Z,4.90
2022-10-09T02:24:46.964Z,4.75
2022-10-09T02:27:14.970Z,4.88
2022-10-09T02:29:43.754Z,4.97
2022-10-09T02:32:11.677Z,4.88
2022-10-09T02:34:38.982Z,4.10
2022-10-09T02:37:06.390Z,4.68
2022-10-09T02:39:33.291Z,4.30
2022-10-09T02:42:00.724Z,4.03
2022-10-09T02:44:27.806Z,4.68
2022-10-09T02:46:54.842Z,4.57
2022-10-09T02:49:22.245Z,4.30
2022-10-09T02:51:49.160Z,4.35
2022-10-09T02:54:16.069Z,4.88
2022-10-09T02:56:42.970Z,4.68
2022-10-09T02:59:10.394Z,4.55
2022-10-09T03:01:37.503Z,5.35
2022-10-09T03:04:04.950Z,5.10
2022-10-09T03:06:32.043Z,5.05
2022-10-09T03:08:59.060Z,5.43
2022-10-09T03:11:26.881Z,5.45
2022-10-09T03:13:54.783Z,4.78
2022-10-09T03:16:24.041Z,5.15
2022-10-09T03:18:52.244Z,7.03
2022-10-09T03:21:21.544Z,5.88
2022-10-09T03:23:49.734Z,6.65
2022-10-09T03:26:19.358Z,6.07
2022-10-09T03:28:48.733Z,6.40
2022-10-09T03:31:39.338Z,6.55
2022-10-09T03:34:04.936Z,5.55
2022-10-09T03:36:31.885Z,5.47
2022-10-09T03:38:58.787Z,6.70
2022-10-09T03:41:25.795Z,6.25
2022-10-09T03:43:52.672Z,6.30
2022-10-09T03:46:19.653Z,5.55
2022-10-09T03:48:46.696Z,5.45
2022-10-09T03:51:13.675Z,4.85
2022-10-09T03:53:40.590Z,4.75
2022-10-09T03:56:07.746Z,5.65
2022-10-09T03:58:34.743Z,5.38
2022-10-09T04:01:01.761Z,5.88
2022-10-09T04:03:29.169Z,5.15
2022-10-09T04:05:56.036Z,4.45
2022-10-09T04:08:23.025Z,5.20
2022-10-09T04:10:56.939Z,5.03
2022-10-09T04:13:23.941Z,3.95
2022-10-09T04:15:54.545Z,4.90
2022-10-09T04:18:22.119Z,5.65
2022-10-09T04:20:51.314Z,6.18
2022-10-09T04:23:19.382Z,6.43
2022-10-09T04:25:46.677Z,5.70
2022-10-09T04:28:14.012Z,6.05
2022-10-09T04:30:41.459Z,6.38
2022-10-09T04:33:12.686Z,6.30
2022-10-09T04:35:44.405Z,6.32
2022-10-09T04:40:38.449Z,7.22
2022-10-09T04:43:05.498Z,6.78
2022-10-09T04:45:32.762Z,6.10
2022-10-09T04:48:00.149Z,5.53
2022-10-09T04:50:27.199Z,6.13
2022-10-09T04:53:00.359Z,6.25
2022-10-09T04:55:27.255Z,6.35
2022-10-09T04:57:54.193Z,5.43
2022-10-09T05:00:21.165Z,5.88
2022-10-09T05:02:48.563Z,5.35
2022-10-09T05:05:15.773Z,5.88
2022-10-09T05:07:42.708Z,6.00
2022-10-09T05:10:09.829Z,5.72
2022-10-09T05:12:36.745Z,5.68
2022-10-09T05:15:05.035Z,6.45
2022-10-09T05:17:32.074Z,7.20
2022-10-09T05:19:59.015Z,8.25
2022-10-09T05:22:25.910Z,7.78
2022-10-09T05:24:54.030Z,8.13
2022-10-09T05:27:20.979Z,8.05
2022-10-09T05:29:47.969Z,8.48
2022-10-09T05:32:15.113Z,10.38
2022-10-09T05:34:42.858Z,7.90
2022-10-09T05:37:09.902Z,9.20
2022-10-09T05:39:38.480Z,8.38
2022-10-09T05:42:05.846Z,7.53
2022-10-09T05:44:32.926Z,7.78
2022-10-09T05:46:59.863Z,8.77
2022-10-09T05:49:26.874Z,7.75
2022-10-09T05:51:54.318Z,8.85
2022-10-09T05:54:21.269Z,8.30
2022-10-09T05:56:48.333Z,9.18
2022-10-09T05:59:19.901Z,8.75
2022-10-09T06:01:51.881Z,8.88
2022-10-09T06:04:21.454Z,10.25
2022-10-09T06:06:49.161Z,9.15
2022-10-09T06:09:18.117Z,14.45
2022-10-09T06:11:45.340Z,12.55
2022-10-09T06:14:13.582Z,11.20
2022-10-09T06:19:14.834Z,11.20
2022-10-09T06:21:42.633Z,9.60
2022-10-09T06:24:17.648Z,10.55
2022-10-09T06:26:44.648Z,10.25
2022-10-09T06:29:11.806Z,10.32
2022-10-09T06:31:38.992Z,12.75
2022-10-09T06:34:06.016Z,12.48
2022-10-09T06:36:35.217Z,11.13
2022-10-09T06:39:06.520Z,10.63
2022-10-09T06:44:16.316Z,9.43
2022-10-09T06:46:45.084Z,9.05
2022-10-09T06:49:12.870Z,8.75
2022-10-09T06:51:39.999Z,9.85
2022-10-09T06:54:13.459Z,8.90
2022-10-09T06:56:40.899Z,10.45
2022-10-09T06:59:08.750Z,11.13
2022-10-09T07:01:35.746Z,10.15
2022-10-09T07:04:07.273Z,11.32
2022-10-09T07:06:38.029Z,10.57
2022-10-09T07:09:07.711Z,9.50
2022-10-09T07:11:36.938Z,9.25
2022-10-09T07:14:06.460Z,12.05
2022-10-09T07:16:38.822Z,12.95
2022-10-09T07:19:17.771Z,10.75
2022-10-09T07:21:47.198Z,12.05
2022-10-09T07:24:14.733Z,11.30
2022-10-09T07:26:44.538Z,11.32
2022-10-09T07:29:15.729Z,12.70
2022-10-09T07:34:09.584Z,13.02
2022-10-09T07:36:36.781Z,11.60
2022-10-09T07:39:04.994Z,12.52
2022-10-09T07:41:32.199Z,10.55
2022-10-09T07:43:59.223Z,14.40
2022-10-09T07:46:33.049Z,9.73
2022-10-09T07:49:00.898Z,9.93
2022-10-09T07:51:29.519Z,9.75
2022-10-09T07:53:57.698Z,8.90
2022-10-09T07:56:29.620Z,8.45
2022-10-09T07:58:59.043Z,8.43
2022-10-09T08:01:29.881Z,8.90
2022-10-09T08:03:59.953Z,8.90
2022-10-09T08:06:27.843Z,7.50
2022-10-09T08:08:57.543Z,6.72
2022-10-09T08:11:25.777Z,8.25
2022-10-09T08:13:54.209Z,5.50
2022-10-09T08:16:22.645Z,6.05
2022-10-09T08:18:49.719Z,4.88
2022-10-09T08:21:18.954Z,5.07
2022-10-09T08:23:46.712Z,4.18
2022-10-09T08:26:16.268Z,4.97
2022-10-09T08:28:43.600Z,4.90
2022-10-09T08:31:15.691Z,4.75
2022-10-09T08:33:43.272Z,5.13
2022-10-09T08:36:12.419Z,4.97
2022-10-09T08:38:48.171Z,4.15
2022-10-09T08:41:52.893Z,4.75
2022-10-09T08:44:33.609Z,4.07
2022-10-09T08:47:26.348Z,4.43
2022-10-09T08:50:23.310Z,3.78
2022-10-09T08:52:59.035Z,3.35
2022-10-09T08:55:32.989Z,3.80
2022-10-09T08:58:05.881Z,3.95
2022-10-09T09:00:43.187Z,3.10
2022-10-09T09:03:43.035Z,3.80
2022-10-09T09:06:40.794Z,3.60
2022-10-09T09:09:51.445Z,4.78
2022-10-09T09:12:42.206Z,3.60
2022-10-09T09:15:59.974Z,4.00
2022-10-09T09:47:34.838Z,2.78
2022-10-09T09:50:06.228Z,4.63
2022-10-09T09:52:43.416Z,3.38
2022-10-09T09:55:29.161Z,4.22
2022-10-09T09:58:07.737Z,3.53
2022-10-09T10:00:35.883Z,2.92
2022-10-09T10:03:11.122Z,3.67
2022-10-09T10:05:39.235Z,4.13
2022-10-09T10:08:35.471Z,2.63
2022-10-09T10:11:06.713Z,3.50
2022-10-09T10:13:47.659Z,4.97
2022-10-09T10:18:48.937Z,2.83
2022-10-09T10:21:19.048Z,3.20
2022-10-09T10:24:10.674Z,3.83
2022-10-09T10:26:51.415Z,3.13
2022-10-09T10:29:23.784Z,3.42
2022-10-09T10:32:29.476Z,3.60
2022-10-09T10:35:17.501Z,4.80
2022-10-09T10:38:14.142Z,3.35
2022-10-09T10:40:56.886Z,2.65
2022-10-09T10:44:02.194Z,2.85
2022-10-09T10:46:39.947Z,2.55
2022-10-09T10:49:11.689Z,2.80
2022-10-09T10:52:09.767Z,2.50
2022-10-09T10:54:41.075Z,2.45
2022-10-09T10:57:16.934Z,3.20
2022-10-09T11:00:11.184Z,2.67
2022-10-09T11:03:17.084Z,3.53
2022-10-09T11:05:53.973Z,2.53
2022-10-09T11:09:07.125Z,3.05
2022-10-09T11:11:48.016Z,2.67
2022-10-09T11:21:00.486Z,2.35
2022-10-09T11:23:42.924Z,2.65
2022-10-09T11:26:42.257Z,3.58
2022-10-09T11:42:32.516Z,2.50
2022-10-09T11:48:16.877Z,2.20
2022-10-09T11:51:01.586Z,2.60
2022-10-09T11:53:31.847Z,2.97
2022-10-09T11:56:28.736Z,4.53
2022-10-09T11:59:06.477Z,2.92
2022-10-09T12:01:44.842Z,2.47
2022-10-09T12:04:54.011Z,2.28
2022-10-09T12:07:47.271Z,2.45
2022-10-09T12:10:34.142Z,2.15
2022-10-09T12:13:05.077Z,2.88
2022-10-09T12:15:54.947Z,2.83
2022-10-09T12:18:27.811Z,3.00
2022-10-09T12:20:56.628Z,2.95
2022-10-09T12:23:27.936Z,3.30
2022-10-09T12:25:56.980Z,2.50
2022-10-09T12:28:39.383Z,2.30
2022-10-09T12:31:18.797Z,2.35
2022-10-09T12:33:51.869Z,2.72
2022-10-09T12:36:29.769Z,2.80
2022-10-09T12:38:57.195Z,2.45
2022-10-09T12:41:30.386Z,3.15
2022-10-09T12:43:58.893Z,2.92
2022-10-09T12:46:32.008Z,2.90
2022-10-09T12:49:00.826Z,2.97
2022-10-09T12:51:30.205Z,2.83
2022-10-09T12:53:57.208Z,2.42
2022-10-09T12:56:29.901Z,4.72
2022-10-09T12:58:58.899Z,2.60
2022-10-09T13:01:26.621Z,2.45
2022-10-09T13:04:05.333Z,2.50
2022-10-09T13:06:50.594Z,2.83
2022-10-09T13:09:37.372Z,3.00
2022-10-09T13:12:22.924Z,2.53
2022-10-09T13:14:55.577Z,2.83
2022-10-09T13:17:33.753Z,2.85
2022-10-09T13:20:04.500Z,3.10
2022-10-09T13:22:35.187Z,3.88
2022-10-09T13:25:04.454Z,3.58
2022-10-09T13:27:35.159Z,3.70
2022-10-09T13:30:02.428Z,3.47
2022-10-09T13:32:29.471Z,3.00
2022-10-09T13:34:58.194Z,3.53
2022-10-09T13:37:26.806Z,2.90
2022-10-09T13:39:56.034Z,2.85
2022-10-09T13:42:26.552Z,3.08
2022-10-09T13:44:54.164Z,2.60
2022-10-09T13:47:24.665Z,3.10
2022-10-09T13:49:51.950Z,3.00
2022-10-09T13:52:18.947Z,3.15
2022-10-09T13:54:45.810Z,3.10
2022-10-09T13:57:12.911Z,3.92
2022-10-09T13:59:40.032Z,2.60
2022-10-09T14:02:07.436Z,3.63
2022-10-09T14:04:34.432Z,3.25
2022-10-09T14:07:01.362Z,3.20
2022-10-09T14:09:28.438Z,3.55
2022-10-09T14:11:55.429Z,3.70
2022-10-09T14:14:22.692Z,3.53
2022-10-09T14:16:50.920Z,3.38
2022-10-09T14:19:18.329Z,4.53
2022-10-09T14:21:47.004Z,3.95
2022-10-09T14:24:14.774Z,3.92
2022-10-09T14:26:41.736Z,3.65
2022-10-09T14:29:10.116Z,3.90
2022-10-09T14:31:37.296Z,4.78
2022-10-09T14:34:04.537Z,4.22
2022-10-09T14:36:31.960Z,4.47
2022-10-09T14:39:01.745Z,4.63
2022-10-09T14:41:32.140Z,5.32
2022-10-09T14:44:01.219Z,5.55
2022-10-09T14:46:29.740Z,5.20
2022-10-09T14:48:57.958Z,4.93
2022-10-09T14:51:26.975Z,5.78
2022-10-09T14:54:00.767Z,4.82
2022-10-09T14:56:28.281Z,6.18
2022-10-09T14:58:57.967Z,5.13
2022-10-09T15:01:24.908Z,5.20
2022-10-09T15:03:51.995Z,5.70
2022-10-09T15:06:24.025Z,6.03
2022-10-09T15:08:56.001Z,5.28
2022-10-09T15:11:23.500Z,5.90
2022-10-09T15:13:50.412Z,6.22
2022-10-09T15:16:19.155Z,6.75
2022-10-09T15:18:48.286Z,7.18
2022-10-09T15:21:23.750Z,6.93
2022-10-09T15:23:53.657Z,6.25
2022-10-09T15:26:20.531Z,7.30
2022-10-09T15:28:47.589Z,7.82
2022-10-09T15:31:35.384Z,8.00
2022-10-09T15:34:02.837Z,8.35
2022-10-09T15:36:33.484Z,8.88
2022-10-09T15:39:05.860Z,9.07
2022-10-09T15:41:35.475Z,9.63
2022-10-09T15:44:05.923Z,9.23
2022-10-09T15:46:32.968Z,10.50
2022-10-09T15:49:00.018Z,10.32
2022-10-09T15:51:27.105Z,9.40
2022-10-09T15:53:54.061Z,9.43
2022-10-09T15:56:23.800Z,8.95
2022-10-09T15:58:52.122Z,8.87
2022-10-09T16:01:19.894Z,8.85
2022-10-09T16:03:47.393Z,10.02
2022-10-09T16:06:17.704Z,9.70
2022-10-09T16:08:46.298Z,8.48
2022-10-09T16:11:17.929Z,9.70
2022-10-09T16:13:48.301Z,9.35
2022-10-09T16:16:21.739Z,12.68
2022-10-09T16:18:49.252Z,15.07
2022-10-09T16:21:28.135Z,13.25
2022-10-09T16:23:58.745Z,10.23
2022-10-09T16:28:53.463Z,8.38
2022-10-09T16:31:28.767Z,9.35
2022-10-09T16:33:56.013Z,9.10
2022-10-09T16:36:23.576Z,9.82
2022-10-09T16:38:50.563Z,10.27
2022-10-09T16:41:20.061Z,9.75
2022-10-09T16:43:49.305Z,10.90
2022-10-09T16:46:25.364Z,10.13
2022-10-09T16:48:53.668Z,10.20
2022-10-09T16:51:32.234Z,10.30
2022-10-09T16:54:01.863Z,11.32
2022-10-09T16:56:34.600Z,10.05
2022-10-09T16:59:04.825Z,11.98
2022-10-09T17:01:32.625Z,11.35
2022-10-09T17:04:00.188Z,10.65
2022-10-09T17:06:27.906Z,11.10
2022-10-09T17:08:57.892Z,11.63
2022-10-09T17:11:26.799Z,11.95
2022-10-09T17:13:56.924Z,11.45
2022-10-09T17:16:26.525Z,10.70
2022-10-09T17:18:54.549Z,12.27
2022-10-09T17:21:21.609Z,11.50
2022-10-09T17:23:52.607Z,11.63
2022-10-09T17:28:47.416Z,11.70
2022-10-09T17:31:17.544Z,11.23
2022-10-09T17:33:46.369Z,10.83
2022-10-09T17:36:19.133Z,10.95
2022-10-09T17:38:47.044Z,11.63
2022-10-09T17:41:15.317Z,11.63
2022-10-09T17:43:42.608Z,11.38
2022-10-09T17:46:09.757Z,12.90
2022-10-09T17:48:38.552Z,11.93
2022-10-09T17:51:05.814Z,11.88
2022-10-09T17:53:32.762Z,13.38
2022-10-09T17:56:03.451Z,12.18
2022-10-09T17:58:30.695Z,12.65
2022-10-09T18:00:57.807Z,11.13
2022-10-09T18:03:24.803Z,12.32
2022-10-09T18:05:51.800Z,12.82
2022-10-09T18:08:19.853Z,11.75
2022-10-09T18:10:47.045Z,11.15
2022-10-09T18:13:14.395Z,13.50
2022-10-09T18:15:43.171Z,12.35
2022-10-09T18:18:11.431Z,12.93
2022-10-09T18:20:39.668Z,15.77
2022-10-09T18:23:08.014Z,12.02
2022-10-09T18:25:36.082Z,11.60
2022-10-09T18:28:03.112Z,11.75
2022-10-09T18:30:30.057Z,13.25
2022-10-09T18:32:57.082Z,10.90
2022-10-09T18:35:25.616Z,12.27
2022-10-09T18:37:52.772Z,12.27
2022-10-09T18:40:19.826Z,10.93
2022-10-09T18:42:46.845Z,11.63
2022-10-09T18:45:14.787Z,12.98
2022-10-09T18:47:42.093Z,10.85
2022-10-09T18:50:12.465Z,11.38
2022-10-09T18:52:41.725Z,12.57
2022-10-09T18:55:12.469Z,11.10
2022-10-09T18:57:41.167Z,13.13
2022-10-09T19:00:09.642Z,12.00
2022-10-09T19:05:11.729Z,12.00
2022-10-09T19:07:38.644Z,12.35
2022-10-09T19:10:07.048Z,11.35
2022-10-09T19:12:34.168Z,11.60
2022-10-09T19:15:01.117Z,11.65
2022-10-09T19:17:28.169Z,11.20
2022-10-09T19:19:55.158Z,12.05
2022-10-09T19:22:24.039Z,12.82
2022-10-09T19:24:51.196Z,14.00
2022-10-09T19:27:18.204Z,11.95
2022-10-09T19:29:45.202Z,12.30
2022-10-09T19:32:12.092Z,12.15
2022-10-09T19:34:39.030Z,10.70
2022-10-09T19:39:37.883Z,11.27
2022-10-09T19:42:04.984Z,11.65
2022-10-09T19:44:31.913Z,10.95
2022-10-09T19:46:58.827Z,11.85
2022-10-09T19:49:25.789Z,13.32
2022-10-09T19:51:52.757Z,12.27
2022-10-09T19:54:19.638Z,11.85
2022-10-09T19:56:46.515Z,11.45
2022-10-09T19:59:13.450Z,12.10
2022-10-09T20:01:40.626Z,11.68
2022-10-09T20:04:09.932Z,11.32
2022-10-09T20:06:38.732Z,10.82
2022-10-09T20:09:07.170Z,12.52
2022-10-09T20:11:35.091Z,12.13
2022-10-09T20:14:02.969Z,13.52
2022-10-09T20:16:32.281Z,12.52
2022-10-09T20:19:03.187Z,11.48
2022-10-09T20:21:32.742Z,10.73
2022-10-09T20:24:01.250Z,12.63
2022-10-09T20:26:29.937Z,11.75
2022-10-09T20:28:57.294Z,12.32
2022-10-09T20:31:26.078Z,12.57
2022-10-09T20:33:54.672Z,12.10
2022-10-09T20:36:35.348Z,12.77
2022-10-09T20:39:05.796Z,12.13
2022-10-09T20:41:33.799Z,12.18
2022-10-09T20:44:02.206Z,11.50
2022-10-09T20:46:31.316Z,11.68
2022-10-09T20:48:59.704Z,11.45
2022-10-09T20:51:26.989Z,12.07
2022-10-09T20:53:57.183Z,11.88
2022-10-09T20:56:26.501Z,12.17
2022-10-09T20:58:54.953Z,11.73
2022-10-09T21:01:22.568Z,12.27
2022-10-09T21:03:49.912Z,11.50
2022-10-09T21:06:19.209Z,11.38
2022-10-09T21:08:46.648Z,12.05
2022-10-09T21:11:19.131Z,10.57
2022-10-09T21:13:46.970Z,11.02
2022-10-09T21:16:21.377Z,11.27
2022-10-09T21:18:52.772Z,12.07
2022-10-09T21:21:19.812Z,11.27
2022-10-09T21:23:50.879Z,13.07
2022-10-09T21:28:45.815Z,11.18
2022-10-09T21:31:16.772Z,11.40
2022-10-09T21:33:43.779Z,10.88
2022-10-09T21:36:21.197Z,11.13
2022-10-09T21:38:48.309Z,11.75
2022-10-09T21:41:15.235Z,10.93
2022-10-09T21:43:42.091Z,10.20
2022-10-09T21:46:09.030Z,10.63
2022-10-09T21:48:35.957Z,11.23
2022-10-09T21:51:03.023Z,11.43
2022-10-09T21:53:29.918Z,11.70
2022-10-09T21:55:56.946Z,12.10
2022-10-09T21:58:23.863Z,11.80
2022-10-09T22:00:58.578Z,10.80
2022-10-09T22:03:27.722Z,10.70
2022-10-09T22:05:54.694Z,10.10
2022-10-09T22:08:22.067Z,10.13
2022-10-09T22:10:49.742Z,10.15
2022-10-09T22:13:18.279Z,10.02
2022-10-09T22:15:50.752Z,10.55
2022-10-09T22:18:18.658Z,9.98
2022-10-09T22:20:48.269Z,11.63
2022-10-09T22:23:16.145Z,9.65
2022-10-09T22:25:43.134Z,11.05
2022-10-09T22:28:10.323Z,10.73
2022-10-09T22:30:37.232Z,10.60
2022-10-09T22:33:04.458Z,10.65
2022-10-09T22:35:31.424Z,9.88
2022-10-09T22:37:58.362Z,10.55
2022-10-09T22:40:25.422Z,10.68
2022-10-09T22:42:52.895Z,10.15
2022-10-09T22:45:19.970Z,10.68
2022-10-09T22:47:48.012Z,10.05
2022-10-09T22:50:15.009Z,10.15
2022-10-09T22:52:42.069Z,10.45
2022-10-09T22:55:09.424Z,10.68
2022-10-09T22:57:36.406Z,12.27
2022-10-09T23:00:05.401Z,10.40
2022-10-09T23:02:32.373Z,11.27
2022-10-09T23:04:59.412Z,11.93
2022-10-09T23:07:26.378Z,10.45
2022-10-09T23:09:53.283Z,11.45
2022-10-09T23:12:20.191Z,11.20
2022-10-09T23:14:47.290Z,9.90
2022-10-09T23:17:14.347Z,10.75
2022-10-09T23:19:41.238Z,9.90
2022-10-09T23:22:08.159Z,10.80
2022-10-09T23:24:35.073Z,10.10
2022-10-09T23:27:02.043Z,10.50
2022-10-09T23:29:29.075Z,10.02
2022-10-09T23:31:56.017Z,9.68
2022-10-09T23:34:22.957Z,9.32
2022-10-09T23:36:49.904Z,10.93
2022-10-09T23:39:17.404Z,10.50
2022-10-09T23:41:44.481Z,10.40
2022-10-09T23:44:11.569Z,10.57
2022-10-09T23:46:38.505Z,10.82
2022-10-09T23:49:05.646Z,10.20
2022-10-09T23:51:32.605Z,10.35
2022-10-09T23:53:59.956Z,10.38
2022-10-09T23:56:35.940Z,9.85
2022-10-09T23:59:06.201Z,10.32
